Time;durP1;ratioP1;P1;durP2;ratioP2;P2;SDS_P1;SDS_P2;PMS_P1;PMS_P2;Temp;Humidity;BMP_temperature;BMP_pressure;BME280_temperature;BME280_humidity;BME280_pressure;Samples;Min_cycle;Max_cycle;Signal;HPM_P1;HPM_P2
2023/09/14 00:00:25;;;;;;;2.27;0.63;;;;;;;15.17;100.00;101483.00;5033937;28;20640;-69
2023/09/14 00:02:53;;;;;;;2.53;0.90;;;;;;;15.18;100.00;101486.53;5034928;28;20549;-68
2023/09/14 00:05:19;;;;;;;2.00;0.50;;;;;;;15.13;100.00;101480.06;5035890;28;20498;-67
2023/09/14 00:07:46;;;;;;;2.10;0.60;;;;;;;15.13;100.00;101482.00;5036936;28;20549;-67
2023/09/14 00:10:14;;;;;;;2.40;0.83;;;;;;;15.07;100.00;101472.34;5036566;28;20529;-67
2023/09/14 00:12:40;;;;;;;2.77;0.70;;;;;;;15.05;100.00;101482.72;5036594;28;20443;-68
2023/09/14 00:15:07;;;;;;;2.40;0.53;;;;;;;15.02;100.00;101483.38;5036575;28;20447;-68
2023/09/14 00:17:34;;;;;;;2.90;0.70;;;;;;;15.05;100.00;101480.00;5035921;28;20537;-68
2023/09/14 00:20:02;;;;;;;2.37;0.70;;;;;;;15.00;100.00;101482.84;5037367;28;20443;-67
2023/09/14 00:22:29;;;;;;;2.33;0.80;;;;;;;14.96;100.00;101487.31;5036237;28;20462;-67
2023/09/14 00:24:55;;;;;;;2.33;0.73;;;;;;;14.95;100.00;101485.72;5037039;28;20566;-67
2023/09/14 00:27:23;;;;;;;2.60;0.60;;;;;;;14.99;100.00;101494.91;5036238;28;20503;-68
2023/09/14 00:29:50;;;;;;;2.30;0.70;;;;;;;14.92;100.00;101499.97;5036593;28;20487;-68
2023/09/14 00:32:17;;;;;;;2.63;1.03;;;;;;;14.88;100.00;101489.69;5037914;28;20526;-67
2023/09/14 00:34:43;;;;;;;2.30;0.70;;;;;;;14.87;100.00;101499.00;5037130;28;20507;-68
2023/09/14 00:37:10;;;;;;;2.00;0.50;;;;;;;14.73;100.00;101492.75;5037458;28;20508;-68
2023/09/14 00:39:36;;;;;;;2.37;0.70;;;;;;;14.79;100.00;101502.44;5037189;28;20442;-68
2023/09/14 00:42:03;;;;;;;3.43;1.00;;;;;;;14.79;100.00;101501.63;5036407;28;20969;-68
2023/09/14 00:44:31;;;;;;;3.80;1.10;;;;;;;14.79;100.00;101496.19;5036486;28;20526;-68
2023/09/14 00:46:58;;;;;;;2.40;0.57;;;;;;;14.69;100.00;101505.38;5036930;28;21038;-68
2023/09/14 00:49:24;;;;;;;2.70;0.80;;;;;;;14.66;100.00;101506.00;5036858;28;20515;-68
2023/09/14 00:51:51;;;;;;;2.03;0.50;;;;;;;14.59;100.00;101503.69;5037053;28;20522;-68
2023/09/14 00:54:18;;;;;;;2.60;0.83;;;;;;;14.57;100.00;101496.94;5036150;28;20470;-68
2023/09/14 00:56:45;;;;;;;8.40;1.10;;;;;;;14.60;100.00;101502.56;5038228;28;20466;-68
2023/09/14 00:59:11;;;;;;;1.80;0.40;;;;;;;14.51;100.00;101498.13;5037844;28;20562;-68
2023/09/14 01:01:39;;;;;;;2.10;0.50;;;;;;;14.50;100.00;101500.06;5038045;28;20817;-68
2023/09/14 01:04:07;;;;;;;2.50;0.77;;;;;;;14.41;100.00;101496.41;5037077;28;20490;-68
2023/09/14 01:06:33;;;;;;;2.13;0.60;;;;;;;14.38;100.00;101499.72;5037316;28;20517;-68
2023/09/14 01:09:00;;;;;;;2.73;0.77;;;;;;;14.34;100.00;101494.09;5037026;28;20573;-68
2023/09/14 01:11:27;;;;;;;2.17;0.57;;;;;;;14.31;100.00;101508.31;5037073;28;20481;-68
2023/09/14 01:14:08;;;;;;;2.57;0.80;;;;;;;14.27;100.00;101501.06;5037880;28;20439;-68
2023/09/14 01:16:41;;;;;;;2.10;0.60;;;;;;;14.20;100.00;101492.47;5037438;28;20453;-68
2023/09/14 01:19:19;;;;;;;2.40;1.00;;;;;;;14.17;100.00;101502.06;5036778;28;20530;-69
2023/09/14 01:22:05;;;;;;;2.00;0.50;;;;;;;14.08;100.00;101503.88;5037846;28;20415;-68
2023/09/14 01:24:43;;;;;;;2.80;0.80;;;;;;;14.03;100.00;101506.69;5036885;28;20411;-68
2023/09/14 01:27:11;;;;;;;2.63;0.80;;;;;;;13.97;100.00;101500.53;5037530;28;20471;-68
2023/09/14 01:29:38;;;;;;;2.40;0.60;;;;;;;13.98;100.00;101501.34;5037588;28;20529;-68
2023/09/14 01:32:05;;;;;;;2.50;0.70;;;;;;;13.98;100.00;101504.88;5037714;28;20470;-68
2023/09/14 01:34:32;;;;;;;2.73;0.90;;;;;;;13.99;100.00;101509.22;5039453;28;20439;-68
2023/09/14 01:37:00;;;;;;;2.53;0.83;;;;;;;13.98;100.00;101498.63;5040692;28;20521;-68
2023/09/14 01:39:29;;;;;;;2.70;1.03;;;;;;;13.95;100.00;101504.69;5040675;28;20435;-68
2023/09/14 01:41:57;;;;;;;2.43;0.70;;;;;;;13.94;100.00;101503.03;5040678;28;20474;-68
2023/09/14 01:44:26;;;;;;;2.67;0.83;;;;;;;13.89;100.00;101512.13;5039306;28;20934;-68
2023/09/14 01:46:54;;;;;;;2.23;0.70;;;;;;;13.86;100.00;101508.09;5040967;28;20473;-68
2023/09/14 01:49:21;;;;;;;2.40;0.80;;;;;;;13.79;100.00;101509.59;5039959;28;20607;-68
2023/09/14 01:51:47;;;;;;;2.00;0.53;;;;;;;13.65;100.00;101519.66;5039325;28;20525;-68
2023/09/14 01:54:14;;;;;;;2.33;0.50;;;;;;;13.66;100.00;101519.34;5040645;28;20474;-68
2023/09/14 01:56:42;;;;;;;2.10;0.53;;;;;;;13.64;100.00;101527.00;5038598;28;20491;-68
2023/09/14 01:59:08;;;;;;;2.00;0.50;;;;;;;13.70;100.00;101525.00;5038514;28;20454;-68
2023/09/14 02:01:36;;;;;;;2.30;0.77;;;;;;;13.65;100.00;101516.91;5038740;28;20481;-68
2023/09/14 02:04:03;;;;;;;1.90;0.40;;;;;;;13.61;100.00;101516.69;5038561;28;20466;-68
2023/09/14 02:06:30;;;;;;;2.63;0.73;;;;;;;13.56;100.00;101514.06;5038549;28;20462;-68
2023/09/14 02:08:56;;;;;;;2.10;0.60;;;;;;;13.51;100.00;101514.16;5038176;28;20487;-68
2023/09/14 02:11:23;;;;;;;3.00;0.80;;;;;;;13.49;100.00;101519.88;5038419;28;20437;-68
2023/09/14 02:13:50;;;;;;;2.83;0.80;;;;;;;13.50;100.00;101521.53;5038955;28;20533;-68
2023/09/14 02:16:17;;;;;;;2.10;0.60;;;;;;;13.49;100.00;101527.25;5040314;28;20486;-68
2023/09/14 02:18:45;;;;;;;2.40;0.70;;;;;;;13.44;100.00;101533.59;5039784;28;20466;-68
2023/09/14 02:21:12;;;;;;;2.20;0.60;;;;;;;13.47;100.00;101524.03;5039244;28;20439;-68
2023/09/14 02:23:39;;;;;;;2.30;0.70;;;;;;;13.48;100.00;101537.34;5039517;28;20447;-68
2023/09/14 02:26:05;;;;;;;3.80;0.83;;;;;;;13.48;100.00;101533.81;5039626;28;20496;-68
2023/09/14 02:28:32;;;;;;;2.37;0.60;;;;;;;13.48;100.00;101541.97;5039744;28;20530;-68
2023/09/14 02:30:59;;;;;;;2.43;0.73;;;;;;;13.50;100.00;101539.75;5040126;28;20566;-68
2023/09/14 02:33:25;;;;;;;2.20;0.60;;;;;;;13.44;100.00;101533.59;5038786;28;20531;-68
2023/09/14 02:35:53;;;;;;;3.07;0.90;;;;;;;13.42;100.00;101538.53;5038417;28;20908;-68
2023/09/14 02:38:20;;;;;;;2.57;0.77;;;;;;;13.44;100.00;101533.59;5038069;28;20447;-68
2023/09/14 02:40:46;;;;;;;2.13;0.57;;;;;;;13.44;100.00;101532.78;5038626;28;20475;-68
2023/09/14 02:43:13;;;;;;;2.10;0.70;;;;;;;13.38;100.00;101546.47;5038539;28;20511;-68
2023/09/14 02:45:39;;;;;;;2.10;0.60;;;;;;;13.36;100.00;101543.22;5037766;28;20521;-68
2023/09/14 02:48:07;;;;;;;2.43;0.80;;;;;;;13.33;100.00;101543.84;5037728;28;20522;-68
2023/09/14 02:50:33;;;;;;;2.10;0.60;;;;;;;13.33;100.00;101538.38;5038892;28;20482;-68
2023/09/14 02:53:01;;;;;;;2.10;0.60;;;;;;;13.30;100.00;101538.16;5038308;28;20531;-68
2023/09/14 02:55:28;;;;;;;2.50;0.60;;;;;;;13.22;100.00;101541.53;5038384;28;20510;-69
2023/09/14 02:57:55;;;;;;;2.47;0.80;;;;;;;13.23;100.00;101554.84;5038293;28;20819;-68
2023/09/14 03:00:21;;;;;;;1.90;0.40;;;;;;;13.19;100.00;101550.25;5037910;28;20451;-68
2023/09/14 03:02:49;;;;;;;4.47;0.80;;;;;;;13.16;100.00;101553.59;5037905;28;20490;-68
2023/09/14 03:05:15;;;;;;;2.27;0.73;;;;;;;13.11;100.00;101565.34;5038722;28;20439;-68
2023/09/14 03:07:42;;;;;;;3.60;1.17;;;;;;;13.11;100.00;101551.75;5037526;28;20546;-68
2023/09/14 03:10:10;;;;;;;2.57;0.63;;;;;;;13.09;100.00;101559.38;5038400;28;20561;-68
2023/09/14 03:12:37;;;;;;;2.30;0.90;;;;;;;13.06;100.00;101554.56;5037975;28;20467;-68
2023/09/14 03:15:04;;;;;;;2.27;0.70;;;;;;;13.11;100.00;101565.34;5037587;28;21012;-68
2023/09/14 03:17:31;;;;;;;2.07;0.60;;;;;;;13.10;100.00;101572.72;5038581;28;20521;-68
2023/09/14 03:19:57;;;;;;;2.40;1.00;;;;;;;13.00;100.00;101572.84;5038141;28;20513;-68
2023/09/14 03:22:24;;;;;;;2.50;0.60;;;;;;;12.90;100.00;101572.16;5037478;28;21002;-68
2023/09/14 03:24:51;;;;;;;2.20;0.80;;;;;;;12.94;100.00;101579.44;5038101;28;20443;-68
2023/09/14 03:27:19;;;;;;;2.07;0.57;;;;;;;12.91;100.00;101584.66;5037203;28;20503;-68
2023/09/14 03:29:46;;;;;;;2.73;0.70;;;;;;;12.87;100.00;101590.66;5035880;28;20558;-68
2023/09/14 03:32:12;;;;;;;3.33;0.90;;;;;;;12.85;100.00;101573.03;5037560;28;20530;-68
2023/09/14 03:34:39;;;;;;;2.57;0.87;;;;;;;12.85;100.00;101576.56;5037550;28;20873;-68
2023/09/14 03:37:05;;;;;;;2.20;0.60;;;;;;;12.83;100.00;101586.91;5036889;28;20955;-68
2023/09/14 03:39:32;;;;;;;2.80;0.73;;;;;;;12.84;100.00;101594.00;5038404;28;20831;-68
2023/09/14 03:41:59;;;;;;;3.30;1.07;;;;;;;12.75;100.00;101592.19;5036846;28;20470;-68
2023/09/14 03:44:27;;;;;;;3.27;0.67;;;;;;;12.67;100.00;101592.84;5037146;28;20499;-68
2023/09/14 03:46:53;;;;;;;2.70;0.83;;;;;;;12.55;100.00;101585.91;5036625;28;20470;-68
2023/09/14 03:49:20;;;;;;;4.53;1.47;;;;;;;12.52;100.00;101593.81;5036646;28;20477;-68
2023/09/14 03:51:47;;;;;;;3.23;0.77;;;;;;;12.45;100.00;101579.78;5034780;28;20439;-68
2023/09/14 03:54:13;;;;;;;2.50;0.80;;;;;;;12.48;100.00;101582.72;5036298;28;20446;-68
2023/09/14 03:56:40;;;;;;;2.50;0.80;;;;;;;12.53;100.00;101573.72;5033870;28;20494;-68
2023/09/14 03:59:07;;;;;;;3.90;1.20;;;;;;;12.53;100.00;101571.00;5033863;28;20943;-68
2023/09/14 04:01:35;;;;;;;4.53;1.17;;;;;;;12.49;100.00;101567.25;5034136;28;20542;-68
2023/09/14 04:04:02;;;;;;;2.40;0.80;;;;;;;12.51;100.00;101586.78;5034067;28;20530;-68
2023/09/14 04:06:29;;;;;;;3.37;1.03;;;;;;;12.45;100.00;101582.50;5033680;28;20465;-68
2023/09/14 04:08:55;;;;;;;2.20;0.60;;;;;;;12.41;100.00;101593.13;5034349;28;20435;-68
2023/09/14 04:11:22;;;;;;;1.93;0.50;;;;;;;12.37;100.00;101589.38;5033770;28;20509;-67
2023/09/14 04:13:49;;;;;;;2.10;0.57;;;;;;;12.37;100.00;101594.81;5033719;28;20443;-67
2023/09/14 04:16:15;;;;;;;2.37;0.83;;;;;;;12.27;100.00;101598.44;5033695;28;20455;-67
2023/09/14 04:18:43;;;;;;;2.00;0.60;;;;;;;12.25;100.00;101600.63;5033523;28;20453;-67
2023/09/14 04:21:10;;;;;;;2.50;0.73;;;;;;;12.32;100.00;101601.09;5034031;28;20523;-67
2023/09/14 04:23:37;;;;;;;2.20;0.57;;;;;;;12.34;100.00;101607.03;5033623;28;20993;-67
2023/09/14 04:26:03;;;;;;;3.53;1.00;;;;;;;12.32;100.00;101619.31;5033242;28;20474;-67
2023/09/14 04:28:31;;;;;;;2.60;1.03;;;;;;;12.29;100.00;101612.53;5033277;28;20543;-67
2023/09/14 04:31:01;;;;;;;2.23;0.60;;;;;;;12.22;100.00;101622.13;5033527;28;20489;-67
2023/09/14 04:33:28;;;;;;;2.00;0.50;;;;;;;12.21;100.00;101621.31;5033979;28;20439;-67
2023/09/14 04:36:05;;;;;;;2.00;0.63;;;;;;;12.20;100.00;101625.13;5033700;28;20463;-67
2023/09/14 04:38:32;;;;;;;2.97;0.90;;;;;;;12.28;100.00;101621.78;5033648;28;20426;-67
2023/09/14 04:41:03;;;;;;;2.27;0.77;;;;;;;12.28;100.00;101626.41;5033492;28;20803;-67
2023/09/14 04:43:32;;;;;;;2.73;1.03;;;;;;;12.25;100.00;101630.50;5033742;28;20514;-67
2023/09/14 04:45:59;;;;;;;2.50;0.63;;;;;;;12.28;100.00;101620.97;5033318;28;20498;-67
2023/09/14 04:48:26;;;;;;;2.43;0.83;;;;;;;12.30;100.00;101625.00;5033414;28;20445;-67
2023/09/14 04:50:52;;;;;;;3.20;0.90;;;;;;;12.32;100.00;101639.13;5033035;28;20487;-67
2023/09/14 04:53:20;;;;;;;2.40;0.73;;;;;;;12.27;100.00;101635.66;5033875;28;20501;-67
2023/09/14 04:55:47;;;;;;;2.40;0.80;;;;;;;12.30;100.00;101633.16;5033049;28;20550;-67
2023/09/14 04:58:14;;;;;;;2.53;0.80;;;;;;;12.24;100.00;101630.81;5033271;28;20446;-67
2023/09/14 05:00:40;;;;;;;3.40;0.97;;;;;;;12.18;100.00;101629.25;5033379;28;20411;-67
2023/09/14 05:03:07;;;;;;;3.33;1.00;;;;;;;12.03;100.00;101632.88;5033027;28;20447;-67
2023/09/14 05:05:34;;;;;;;1.93;0.40;;;;;;;11.95;100.00;101634.28;5033441;28;20447;-67
2023/09/14 05:08:00;;;;;;;3.07;1.07;;;;;;;11.91;100.00;101637.88;5033188;28;20526;-67
2023/09/14 05:10:28;;;;;;;2.20;0.60;;;;;;;11.85;100.00;101640.63;5036786;28;20494;-67
2023/09/14 05:12:55;;;;;;;2.27;0.70;;;;;;;11.86;100.00;101642.25;5036884;28;21006;-67
2023/09/14 05:15:22;;;;;;;2.30;0.70;;;;;;;11.95;100.00;101647.88;5037035;28;20529;-67
2023/09/14 05:17:48;;;;;;;2.50;0.90;;;;;;;11.98;100.00;101647.31;5036988;28;20427;-67
2023/09/14 05:20:15;;;;;;;2.40;0.80;;;;;;;11.97;100.00;101661.19;5036966;28;20530;-67
2023/09/14 05:22:42;;;;;;;2.67;0.70;;;;;;;12.06;100.00;101656.75;5036659;28;20981;-67
2023/09/14 05:25:09;;;;;;;3.07;1.03;;;;;;;12.05;100.00;101658.66;5037702;28;20457;-67
2023/09/14 05:27:38;;;;;;;2.33;0.93;;;;;;;12.13;100.00;101651.81;5037132;28;20550;-67
2023/09/14 05:30:05;;;;;;;2.10;0.60;;;;;;;12.22;100.00;101660.97;5036767;28;20843;-67
2023/09/14 05:32:32;;;;;;;2.37;0.83;;;;;;;12.24;100.00;101669.63;5036764;28;20525;-67
2023/09/14 05:34:59;;;;;;;2.50;0.77;;;;;;;12.30;100.00;101673.91;5036767;28;20526;-67
2023/09/14 05:37:25;;;;;;;2.80;0.90;;;;;;;12.35;100.00;101671.19;5036843;28;20558;-67
2023/09/14 05:39:52;;;;;;;2.80;1.03;;;;;;;12.38;100.00;101675.22;5036469;28;20931;-67
2023/09/14 05:42:19;;;;;;;2.30;0.73;;;;;;;12.38;100.00;101673.31;5036676;28;20443;-67
2023/09/14 05:44:47;;;;;;;2.50;0.80;;;;;;;12.45;100.00;101675.69;5036656;28;20470;-67
2023/09/14 05:47:14;;;;;;;3.10;1.27;;;;;;;12.45;100.00;101674.91;5036228;28;20455;-67
2023/09/14 05:49:41;;;;;;;2.40;0.70;;;;;;;12.46;100.00;101677.31;5036123;28;20927;-67
2023/09/14 05:52:07;;;;;;;3.63;0.70;;;;;;;12.42;100.00;101678.19;5036156;28;20942;-67
2023/09/14 05:54:36;;;;;;;2.23;0.90;;;;;;;12.50;100.00;101683.81;5036437;28;20540;-68
2023/09/14 05:57:02;;;;;;;2.30;0.87;;;;;;;12.52;100.00;101688.94;5036068;28;20808;-68
2023/09/14 05:59:29;;;;;;;2.60;0.80;;;;;;;12.53;100.00;101691.38;5036122;28;21045;-68
2023/09/14 06:01:57;;;;;;;2.73;1.03;;;;;;;12.53;100.00;101691.38;5038184;28;20478;-69
2023/09/14 06:04:24;;;;;;;2.50;0.90;;;;;;;12.64;100.00;101700.25;5038375;28;20490;-69
2023/09/14 06:06:51;;;;;;;2.50;0.83;;;;;;;12.57;100.00;101702.47;5038141;28;20529;-72
2023/09/14 06:09:17;;;;;;;3.30;0.83;;;;;;;12.66;100.00;101698.06;5036578;28;20525;-71
2023/09/14 06:11:44;;;;;;;2.83;0.77;;;;;;;12.72;100.00;101702.34;5036553;28;20483;-69
2023/09/14 06:14:11;;;;;;;3.30;0.80;;;;;;;12.78;100.00;101706.63;5035605;28;20957;-69
2023/09/14 06:16:37;;;;;;;2.13;0.63;;;;;;;12.83;100.00;101705.75;5036262;28;20547;-68
2023/09/14 06:19:05;;;;;;;2.30;0.77;;;;;;;12.87;100.00;101704.88;5039095;28;20471;-69
2023/09/14 06:21:34;;;;;;;2.30;0.80;;;;;;;12.87;100.00;101702.16;5037803;28;20431;-67
2023/09/14 06:24:01;;;;;;;2.60;0.73;;;;;;;12.92;100.00;101704.00;5039156;28;20457;-67
2023/09/14 06:26:28;;;;;;;2.63;1.03;;;;;;;12.95;100.00;101708.06;5037782;28;20513;-68
2023/09/14 06:28:55;;;;;;;6.47;1.17;;;;;;;13.04;100.00;101709.06;5040874;28;20445;-68
2023/09/14 06:31:22;;;;;;;2.60;0.80;;;;;;;13.11;100.00;101707.63;5036900;28;20482;-67
2023/09/14 06:33:49;;;;;;;2.40;0.77;;;;;;;13.17;100.00;101702.91;5035579;28;20531;-67
2023/09/14 06:36:18;;;;;;;2.40;0.60;;;;;;;13.17;100.00;101708.34;5035909;28;20513;-67
2023/09/14 06:38:45;;;;;;;2.93;1.03;;;;;;;13.25;100.00;101710.47;5035471;28;20477;-67
2023/09/14 06:41:12;;;;;;;2.50;0.80;;;;;;;13.32;100.00;101716.34;5035502;28;20442;-67
2023/09/14 06:43:39;;;;;;;3.13;1.03;;;;;;;13.43;100.00;101708.06;5035450;28;20546;-67
2023/09/14 06:46:05;;;;;;;3.47;1.27;;;;;;;13.51;100.00;101708.22;5035399;28;20462;-67
2023/09/14 06:48:32;;;;;;;2.27;0.93;;;;;;;13.53;100.00;101700.56;5035310;28;20471;-67
2023/09/14 06:50:59;;;;;;;2.70;0.90;;;;;;;13.49;100.00;101715.06;5035257;28;20830;-67
2023/09/14 06:53:27;;;;;;;3.10;0.83;;;;;;;13.57;100.00;101717.13;5035679;28;20451;-67
2023/09/14 06:55:53;;;;;;;2.27;0.60;;;;;;;13.68;100.00;101710.44;5035109;28;20467;-67
2023/09/14 06:58:20;;;;;;;2.00;0.60;;;;;;;13.79;100.00;101709.19;5035111;28;20928;-67
2023/09/14 07:00:46;;;;;;;3.13;0.90;;;;;;;13.79;100.00;101720.09;5035497;28;20419;-67
2023/09/14 07:03:13;;;;;;;2.40;0.60;;;;;;;13.88;100.00;101718.31;5035395;28;20526;-67
2023/09/14 07:05:40;;;;;;;2.57;1.10;;;;;;;14.01;100.00;101718.69;5035073;28;20973;-67
2023/09/14 07:08:07;;;;;;;2.60;0.97;;;;;;;14.08;100.00;101721.84;5034664;28;20466;-67
2023/09/14 07:10:35;;;;;;;2.10;0.60;;;;;;;14.12;100.00;101729.13;5035190;28;20487;-67
2023/09/14 07:13:02;;;;;;;4.27;1.23;;;;;;;14.18;100.00;101729.84;5034896;28;20442;-67
2023/09/14 07:15:29;;;;;;;2.90;1.00;;;;;;;14.27;100.00;101729.97;5034713;28;20493;-67
2023/09/14 07:17:55;;;;;;;2.37;0.80;;;;;;;14.26;100.00;101734.63;5034750;28;20529;-67
2023/09/14 07:20:22;;;;;;;2.73;1.03;;;;;;;14.35;100.00;101738.28;5034313;28;20474;-67
2023/09/14 07:22:49;;;;;;;3.17;0.80;;;;;;;14.43;100.00;101734.06;5034868;28;20923;-67
2023/09/14 07:25:15;;;;;;;2.30;0.80;;;;;;;14.50;100.00;101741.88;5034548;28;20439;-67
2023/09/14 07:27:44;;;;;;;2.33;0.70;;;;;;;14.59;100.00;101738.19;5034590;28;20991;-67
2023/09/14 07:30:13;;;;;;;2.20;0.70;;;;;;;14.69;100.00;101747.28;5034562;28;20787;-67
2023/09/14 07:32:40;;;;;;;2.50;0.73;;;;;;;14.76;100.00;101737.59;5034306;28;20439;-68
2023/09/14 07:35:08;;;;;;;2.50;0.73;;;;;;;14.86;100.00;101747.50;5034364;28;20435;-67
2023/09/14 07:37:35;;;;;;;2.63;0.80;;;;;;;14.95;100.00;101759.34;5034257;28;20455;-67
2023/09/14 07:40:03;;;;;;;2.73;0.90;;;;;;;15.01;100.00;101758.16;5034364;28;20445;-67
2023/09/14 07:42:29;;;;;;;2.47;0.80;;;;;;;15.11;100.00;101762.59;5034051;28;20530;-67
2023/09/14 07:44:57;;;;;;;3.00;0.80;;;;;;;15.20;100.00;101755.31;5033933;28;20939;-67
2023/09/14 07:47:28;;;;;;;2.40;0.83;;;;;;;15.29;100.00;101777.28;5034035;28;20481;-67
2023/09/14 07:49:54;;;;;;;3.50;0.80;;;;;;;15.36;100.00;101766.72;5033903;28;20895;-67
2023/09/14 07:52:22;;;;;;;2.10;0.60;;;;;;;15.42;100.00;101771.00;5034207;28;20557;-67
2023/09/14 07:54:49;;;;;;;2.53;0.83;;;;;;;15.47;100.00;101773.63;5033649;28;20479;-67
2023/09/14 07:57:16;;;;;;;2.10;0.67;;;;;;;15.55;99.53;101774.84;5033885;28;20542;-67
2023/09/14 07:59:42;;;;;;;2.90;1.00;;;;;;;15.54;98.25;101781.41;5033688;28;20558;-67
2023/09/14 08:02:11;;;;;;;2.47;0.73;;;;;;;15.61;98.17;101774.41;5033477;28;20939;-67
2023/09/14 08:04:38;;;;;;;2.20;0.70;;;;;;;15.69;97.59;101780.31;5033909;28;20439;-67
2023/09/14 08:07:05;;;;;;;3.70;1.03;;;;;;;15.78;98.10;101779.28;5033869;28;20466;-67
2023/09/14 08:09:31;;;;;;;2.20;0.60;;;;;;;15.77;97.51;101774.94;5033549;28;20876;-67
2023/09/14 08:11:58;;;;;;;2.00;0.50;;;;;;;15.79;95.30;101775.41;5033425;28;20515;-67
2023/09/14 08:14:24;;;;;;;2.53;0.80;;;;;;;15.91;94.18;101782.28;5033986;28;20471;-67
2023/09/14 08:16:51;;;;;;;2.20;0.70;;;;;;;16.00;93.11;101780.44;5033718;28;20498;-69
2023/09/14 08:19:19;;;;;;;2.47;0.70;;;;;;;16.07;94.54;101783.53;5033698;28;20453;-68
2023/09/14 08:21:45;;;;;;;2.30;0.60;;;;;;;16.08;95.87;101783.25;5033336;28;20934;-67
2023/09/14 08:24:12;;;;;;;2.50;0.70;;;;;;;16.21;95.48;101789.78;5034169;28;20796;-67
2023/09/14 08:26:39;;;;;;;2.47;0.70;;;;;;;16.31;93.38;101786.00;5033584;28;20554;-67
2023/09/14 08:29:05;;;;;;;2.00;0.50;;;;;;;16.40;93.73;101793.16;5033695;28;20446;-68
2023/09/14 08:31:32;;;;;;;2.20;0.50;;;;;;;16.51;92.90;101790.97;5033793;28;20588;-68
2023/09/14 08:33:59;;;;;;;2.00;0.50;;;;;;;16.55;87.53;101796.63;5033909;28;20449;-68
2023/09/14 08:36:27;;;;;;;1.97;0.47;;;;;;;16.64;88.55;101794.75;5033640;28;20546;-68
2023/09/14 08:38:54;;;;;;;1.97;0.43;;;;;;;16.72;88.80;101784.97;5033266;28;21025;-68
2023/09/14 08:41:27;;;;;;;2.53;0.70;;;;;;;16.76;89.83;101786.81;5033225;28;20986;-68
2023/09/14 08:43:55;;;;;;;2.10;0.50;;;;;;;16.82;86.58;101790.22;5037031;28;20976;-68
2023/09/14 08:46:23;;;;;;;2.20;0.67;;;;;;;16.86;83.17;101789.28;5040170;28;20481;-68
2023/09/14 08:48:53;;;;;;;2.20;0.50;;;;;;;16.92;82.39;101803.66;5039974;28;20490;-68
2023/09/14 08:51:21;;;;;;;1.80;0.40;;;;;;;16.88;82.17;101800.72;5039888;28;20467;-68
2023/09/14 08:53:50;;;;;;;2.23;0.60;;;;;;;16.90;82.08;101795.72;5040299;28;20871;-69
2023/09/14 08:56:17;;;;;;;2.00;0.50;;;;;;;17.01;82.70;101806.44;5040121;28;20538;-67
2023/09/14 08:58:45;;;;;;;2.00;0.40;;;;;;;17.10;83.27;101808.09;5039678;28;20464;-67
2023/09/14 09:01:17;;;;;;;2.00;0.43;;;;;;;17.22;83.87;101804.75;5039978;28;20877;-68
2023/09/14 09:03:43;;;;;;;2.10;0.60;;;;;;;17.34;81.64;101799.47;5040307;28;20455;-68
2023/09/14 09:06:11;;;;;;;2.20;0.50;;;;;;;17.34;82.41;101809.63;5039733;28;20481;-69
2023/09/14 09:08:38;;;;;;;1.90;0.40;;;;;;;17.45;81.18;101800.00;5039933;28;20501;-69
2023/09/14 09:11:06;;;;;;;2.00;0.40;;;;;;;17.45;84.29;101802.75;5039745;28;21006;-69
2023/09/14 09:13:34;;;;;;;1.90;0.50;;;;;;;17.58;85.73;101801.81;5039792;28;20449;-69
2023/09/14 09:16:01;;;;;;;2.10;0.50;;;;;;;17.59;83.37;101808.91;5039762;28;20462;-69
2023/09/14 09:18:28;;;;;;;2.17;0.60;;;;;;;17.69;83.00;101807.00;5039818;28;20443;-68
2023/09/14 09:20:55;;;;;;;2.10;0.60;;;;;;;17.90;81.05;101808.84;5039478;28;20451;-68
2023/09/14 09:23:21;;;;;;;2.70;0.73;;;;;;;17.97;79.33;101808.34;5039591;28;20465;-68
2023/09/14 09:25:49;;;;;;;1.90;0.43;;;;;;;18.15;78.62;101814.69;5039742;28;20455;-68
2023/09/14 09:28:17;;;;;;;2.30;0.60;;;;;;;18.27;76.69;101823.06;5039494;28;20488;-68
2023/09/14 09:30:45;;;;;;;2.70;1.00;;;;;;;18.44;75.59;101815.94;5039944;28;20435;-68
2023/09/14 09:33:12;;;;;;;2.20;0.60;;;;;;;18.61;75.99;101811.25;5039331;28;20604;-69
2023/09/14 09:35:39;;;;;;;2.93;0.70;;;;;;;18.70;74.02;101814.00;5039500;28;20545;-68
2023/09/14 09:38:13;;;;;;;2.30;0.60;;;;;;;18.81;73.98;101815.25;5039187;28;20443;-68
2023/09/14 09:40:42;;;;;;;2.03;0.50;;;;;;;18.90;71.85;101821.56;5039822;28;20423;-68
2023/09/14 09:43:09;;;;;;;2.60;1.20;;;;;;;18.84;70.66;101814.63;5039051;28;20938;-68
2023/09/14 09:45:40;;;;;;;2.10;0.53;;;;;;;18.90;69.37;101813.34;5039657;28;20458;-68
2023/09/14 09:48:08;;;;;;;2.60;0.90;;;;;;;18.86;70.59;101811.56;5039405;28;20423;-69
2023/09/14 09:50:35;;;;;;;2.03;0.60;;;;;;;18.70;70.72;101807.72;5039310;28;20526;-69
2023/09/14 09:53:02;;;;;;;2.10;0.60;;;;;;;18.57;69.16;101810.28;5039248;28;20569;-68
2023/09/14 09:55:30;;;;;;;2.30;0.60;;;;;;;18.63;71.46;101808.97;5037193;28;20454;-68
2023/09/14 09:57:58;;;;;;;2.43;0.77;;;;;;;18.69;70.34;101817.91;5036826;28;20442;-68
2023/09/14 10:00:29;;;;;;;1.90;0.40;;;;;;;18.70;68.71;101813.22;5039215;28;20462;-68
2023/09/14 10:02:57;;;;;;;1.90;0.50;;;;;;;18.74;68.30;101809.47;5039093;28;20422;-68
2023/09/14 10:05:28;;;;;;;2.00;0.50;;;;;;;18.71;66.31;101812.06;5036391;28;20808;-68
2023/09/14 10:07:56;;;;;;;1.80;0.40;;;;;;;18.72;68.38;101810.94;5036525;28;20447;-68
2023/09/14 10:10:25;;;;;;;2.00;0.50;;;;;;;18.73;69.96;101813.38;5036240;28;20447;-68
2023/09/14 10:12:53;;;;;;;2.20;0.73;;;;;;;18.76;69.17;101809.94;5035924;28;20487;-68
2023/09/14 10:15:20;;;;;;;2.00;0.50;;;;;;;18.77;69.97;101810.75;5035902;28;20908;-68
2023/09/14 10:17:51;;;;;;;1.80;0.40;;;;;;;18.81;61.46;101806.22;5036441;28;20485;-68
2023/09/14 10:20:19;;;;;;;1.80;0.40;;;;;;;18.85;60.97;101810.72;5036184;28;20446;-68
2023/09/14 10:22:48;;;;;;;2.43;0.80;;;;;;;18.73;63.27;101813.38;5035968;28;20466;-68
2023/09/14 10:25:15;;;;;;;2.87;0.77;;;;;;;18.67;64.67;101817.38;5036278;28;20459;-69
2023/09/14 10:27:42;;;;;;;2.40;0.70;;;;;;;18.74;61.99;101827.91;5035754;28;20459;-68
2023/09/14 10:30:16;;;;;;;2.20;0.50;;;;;;;18.85;64.95;101815.41;5035369;28;20439;-67
2023/09/14 10:32:44;;;;;;;4.00;1.17;;;;;;;19.02;64.37;101817.31;5035952;28;20463;-69
2023/09/14 10:35:12;;;;;;;2.13;0.67;;;;;;;19.01;64.29;101821.19;5035721;28;20443;-67
2023/09/14 10:37:44;;;;;;;2.10;0.70;;;;;;;19.09;64.13;101820.38;5035359;28;20564;-67
2023/09/14 10:40:12;;;;;;;2.00;0.50;;;;;;;19.25;65.24;101815.13;5035284;28;20900;-67
2023/09/14 10:42:39;;;;;;;2.73;0.67;;;;;;;19.34;63.42;101819.44;5035830;28;20529;-67
2023/09/14 10:45:08;;;;;;;2.30;0.50;;;;;;;19.46;62.96;101812.44;5035119;28;20899;-67
2023/09/14 10:47:38;;;;;;;2.20;0.67;;;;;;;19.68;65.00;101812.19;5034967;28;20962;-67
2023/09/14 10:50:06;;;;;;;1.93;0.50;;;;;;;19.94;59.31;101819.47;5035375;28;20434;-67
2023/09/14 10:52:34;;;;;;;3.70;0.60;;;;;;;19.99;59.78;101811.03;5035316;28;20569;-67
2023/09/14 10:55:07;;;;;;;2.50;0.80;;;;;;;20.04;58.40;101822.63;5035519;28;20493;-67
2023/09/14 10:57:35;;;;;;;1.97;0.60;;;;;;;20.15;57.90;101803.78;5035118;28;20981;-68
2023/09/14 11:00:04;;;;;;;2.23;0.67;;;;;;;20.35;61.61;101810.41;5034818;28;20457;-68
2023/09/14 11:02:56;;;;;;;2.13;0.60;;;;;;;20.67;58.76;101814.34;5034752;28;20482;-68
2023/09/14 11:05:24;;;;;;;3.50;0.60;;;;;;;20.72;54.83;101813.31;5034807;28;20440;-68
2023/09/14 11:07:59;;;;;;;1.80;0.40;;;;;;;20.37;54.72;101806.19;5034694;28;20443;-68
2023/09/14 11:10:28;;;;;;;1.80;0.40;;;;;;;20.24;57.62;101807.28;5034881;28;20493;-67
2023/09/14 11:13:25;;;;;;;2.10;0.60;;;;;;;20.38;58.94;101809.75;5034758;28;20522;-67
2023/09/14 11:15:57;;;;;;;4.03;0.70;;;;;;;21.40;53.34;101811.72;5034912;28;20966;-67
2023/09/14 11:18:51;;;;;;;2.33;0.60;;;;;;;22.51;50.08;101817.03;5034502;28;20449;-67
2023/09/14 11:21:43;;;;;;;2.10;0.60;;;;;;;23.41;49.21;101802.41;5034917;28;20431;-67